Time;durP1;ratioP1;P1;durP2;ratioP2;P2;SDS_P1;SDS_P2;PMS_P1;PMS_P2;Temp;Humidity;BMP_temperature;BMP_pressure;BME280_temperature;BME280_humidity;BME280_pressure;Samples;Min_cycle;Max_cycle;Signal;HPM_P1;HPM_P2
2022/01/09 00:00:26;;;;;;;3.70;2.88;;;0.80;99.90;;;;;;5098707;28;20054;-88
2022/01/09 00:02:53;;;;;;;4.68;3.17;;;0.80;99.90;;;;;;5098666;28;20047;-91
2022/01/09 00:05:20;;;;;;;3.08;2.78;;;0.80;99.90;;;;;;5098279;28;20073;-91
2022/01/09 00:07:48;;;;;;;3.20;2.60;;;0.80;99.90;;;;;;5098610;28;20044;-88
2022/01/09 00:10:15;;;;;;;3.17;2.88;;;0.90;99.90;;;;;;5115652;28;20047;-90
2022/01/09 00:12:42;;;;;;;3.40;2.78;;;0.90;99.90;;;;;;5116442;28;20134;-89
2022/01/09 00:15:10;;;;;;;2.95;2.60;;;0.90;99.90;;;;;;5098429;28;20051;-90
2022/01/09 00:17:37;;;;;;;4.50;3.05;;;0.90;99.90;;;;;;5098379;28;20495;-88
2022/01/09 00:20:05;;;;;;;3.97;2.75;;;0.90;99.90;;;;;;5098279;28;20524;-89
2022/01/09 00:22:42;;;;;;;2.67;2.40;;;0.90;99.90;;;;;;5098215;28;20480;-89
2022/01/09 00:25:09;;;;;;;3.63;2.70;;;0.90;99.90;;;;;;5098074;28;20052;-89
2022/01/09 00:27:36;;;;;;;4.05;2.90;;;0.90;99.90;;;;;;5098268;28;20082;-88
2022/01/09 00:30:05;;;;;;;4.15;2.63;;;0.90;99.90;;;;;;5097851;28;20048;-89
2022/01/09 00:32:32;;;;;;;3.22;2.90;;;0.90;99.90;;;;;;5097829;28;20469;-89
2022/01/09 00:34:59;;;;;;;4.35;3.45;;;0.90;99.90;;;;;;5114930;28;20052;-89
2022/01/09 00:37:26;;;;;;;3.70;2.70;;;0.90;99.90;;;;;;5097802;28;20055;-90
2022/01/09 00:39:53;;;;;;;3.03;2.70;;;1.00;99.90;;;;;;5115527;28;20047;-89
2022/01/09 00:42:20;;;;;;;5.30;3.10;;;1.00;99.90;;;;;;5115345;28;20510;-88
2022/01/09 00:44:47;;;;;;;3.38;2.78;;;1.00;99.90;;;;;;5097482;28;20043;-89
2022/01/09 00:47:14;;;;;;;3.03;2.67;;;1.10;99.90;;;;;;5097596;28;20445;-88
2022/01/09 00:49:40;;;;;;;3.47;2.70;;;1.10;99.90;;;;;;5097568;28;20040;-89
2022/01/09 00:52:07;;;;;;;4.07;2.83;;;1.10;99.90;;;;;;5097450;28;20048;-88
2022/01/09 00:54:34;;;;;;;3.22;2.80;;;1.10;99.90;;;;;;5097347;28;20047;-89
2022/01/09 00:57:01;;;;;;;3.03;2.58;;;1.10;99.90;;;;;;5097119;28;20048;-88
2022/01/09 00:59:28;;;;;;;3.08;2.85;;;1.10;99.90;;;;;;5114888;28;20142;-89
2022/01/09 01:01:55;;;;;;;4.32;3.50;;;1.10;99.90;;;;;;5097398;28;20073;-88
2022/01/09 01:04:22;;;;;;;4.47;3.08;;;1.20;99.90;;;;;;5098451;28;20074;-88
2022/01/09 01:06:49;;;;;;;4.35;3.35;;;1.10;99.90;;;;;;5114934;28;20496;-88
2022/01/09 01:09:17;;;;;;;3.55;3.25;;;1.20;99.90;;;;;;5114540;28;20050;-87
2022/01/09 01:11:44;;;;;;;4.35;3.20;;;1.20;99.90;;;;;;5097094;28;20043;-88
2022/01/09 01:14:10;;;;;;;3.58;3.13;;;1.20;99.90;;;;;;5096949;28;20502;-89
2022/01/09 01:16:38;;;;;;;4.18;3.25;;;1.20;99.90;;;;;;5096879;28;20052;-88
2022/01/09 01:19:06;;;;;;;6.53;3.47;;;1.30;99.90;;;;;;5097180;28;20044;-88
2022/01/09 01:21:35;;;;;;;7.28;3.80;;;1.20;99.90;;;;;;5097200;28;20126;-88
2022/01/09 01:24:02;;;;;;;4.90;3.75;;;1.20;99.90;;;;;;5096884;28;20418;-88
2022/01/09 01:26:29;;;;;;;4.93;3.63;;;1.30;99.90;;;;;;5096576;28;20130;-88
2022/01/09 01:28:56;;;;;;;4.57;3.65;;;1.30;99.90;;;;;;5096897;28;20488;-88
2022/01/09 01:31:23;;;;;;;12.32;4.57;;;1.30;99.90;;;;;;5114500;28;20043;-88
2022/01/09 01:33:49;;;;;;;11.23;3.97;;;1.30;99.90;;;;;;5096697;28;20046;-88
2022/01/09 01:36:16;;;;;;;25.42;6.43;;;1.40;99.90;;;;;;5114434;28;20048;-88
2022/01/09 01:38:43;;;;;;;20.65;5.97;;;1.40;99.90;;;;;;5114291;28;20484;-88
2022/01/09 01:41:10;;;;;;;5.90;4.47;;;1.40;99.90;;;;;;5096553;28;20050;-87
2022/01/09 01:43:37;;;;;;;5.78;3.67;;;1.30;99.90;;;;;;5096687;28;20507;-88
2022/01/09 01:46:04;;;;;;;3.95;3.65;;;1.30;99.90;;;;;;5095490;28;20491;-88
2022/01/09 01:48:31;;;;;;;3.70;3.38;;;1.30;99.90;;;;;;5096202;28;20050;-88
2022/01/09 01:50:58;;;;;;;3.55;3.28;;;1.30;99.90;;;;;;5096219;28;20055;-89
2022/01/09 01:53:25;;;;;;;3.72;3.42;;;1.20;99.90;;;;;;5114099;28;20071;-88
2022/01/09 01:55:55;;;;;;;6.68;4.13;;;1.20;99.90;;;;;;5096086;28;20051;-89
2022/01/09 01:58:26;;;;;;;3.67;3.35;;;1.20;99.90;;;;;;5095929;28;20095;-88
2022/01/09 02:00:53;;;;;;;3.65;3.35;;;1.20;99.90;;;;;;5096535;28;20043;-89
2022/01/09 02:03:20;;;;;;;3.63;3.33;;;1.20;99.90;;;;;;5096144;28;20051;-89
2022/01/09 02:05:48;;;;;;;5.45;3.72;;;1.20;99.90;;;;;;5114268;28;20047;-90
2022/01/09 02:08:15;;;;;;;3.92;3.30;;;1.20;99.90;;;;;;5114086;28;20062;-89
2022/01/09 02:10:44;;;;;;;3.72;3.40;;;1.30;99.90;;;;;;5095528;28;20047;-89
2022/01/09 02:13:12;;;;;;;4.55;3.50;;;1.30;99.90;;;;;;5114212;28;20047;-89
2022/01/09 02:15:47;;;;;;;4.78;3.55;;;1.30;99.90;;;;;;5096318;28;20058;-89
2022/01/09 02:18:20;;;;;;;4.75;3.72;;;1.30;99.90;;;;;;5096400;28;20054;-88
2022/01/09 02:20:49;;;;;;;3.22;3.03;;;1.30;99.90;;;;;;5113849;28;20062;-89
2022/01/09 02:23:17;;;;;;;3.28;3.08;;;1.30;99.90;;;;;;5096034;28;20049;-89
2022/01/09 02:25:46;;;;;;;3.20;2.90;;;1.30;99.90;;;;;;5114195;28;20074;-88
2022/01/09 02:28:15;;;;;;;3.20;3.00;;;1.40;99.90;;;;;;5095956;28;20217;-91
2022/01/09 02:30:42;;;;;;;3.55;3.25;;;1.30;99.90;;;;;;5095641;28;20479;-88
2022/01/09 02:33:13;;;;;;;3.47;3.17;;;1.30;99.90;;;;;;5095844;28;20079;-88
2022/01/09 02:35:40;;;;;;;3.20;3.00;;;1.40;99.90;;;;;;5095573;28;20139;-90
2022/01/09 02:38:07;;;;;;;3.17;2.97;;;1.40;99.90;;;;;;5113578;28;20054;-87
2022/01/09 02:40:34;;;;;;;3.17;2.88;;;1.40;99.90;;;;;;5095994;28;20131;-90
2022/01/09 02:43:01;;;;;;;2.88;2.67;;;1.30;99.90;;;;;;5095865;28;20142;-88
2022/01/09 02:45:29;;;;;;;4.03;2.95;;;1.40;99.90;;;;;;5095653;28;20061;-89
2022/01/09 02:47:57;;;;;;;3.03;2.78;;;1.40;99.90;;;;;;5095943;28;20411;-90
2022/01/09 02:53:01;;;;;;;3.25;3.05;;;1.40;99.90;;;;;;5113686;28;20048;-91
2022/01/09 02:55:29;;;;;;;3.03;2.83;;;1.40;99.90;;;;;;5095767;28;20048;-89
2022/01/09 02:57:58;;;;;;;3.17;2.97;;;1.40;99.90;;;;;;5098563;28;20066;-88
2022/01/09 03:00:34;;;;;;;3.10;2.90;;;1.40;99.90;;;;;;5099485;28;20142;-89
2022/01/09 03:03:02;;;;;;;3.08;2.88;;;1.40;99.90;;;;;;5099573;28;20055;-89
2022/01/09 03:05:30;;;;;;;2.67;2.47;;;1.40;99.90;;;;;;5099447;28;20047;-88
2022/01/09 03:07:58;;;;;;;3.58;2.85;;;1.40;99.90;;;;;;5099147;28;20050;-88
2022/01/09 03:10:26;;;;;;;2.60;2.40;;;1.30;99.90;;;;;;5098965;28;20415;-88
2022/01/09 03:12:55;;;;;;;3.70;2.80;;;1.30;99.90;;;;;;5099092;28;20049;-89
2022/01/09 03:15:24;;;;;;;2.50;2.40;;;1.30;99.90;;;;;;5099036;28;20050;-90
2022/01/09 03:17:52;;;;;;;2.53;2.38;;;1.30;99.90;;;;;;5098954;28;20044;-87
2022/01/09 03:20:22;;;;;;;2.72;2.53;;;1.40;99.90;;;;;;5098974;28;20074;-88
2022/01/09 03:22:49;;;;;;;2.40;2.30;;;1.40;99.90;;;;;;5098725;28;20047;-88
2022/01/09 03:25:16;;;;;;;2.40;2.17;;;1.40;99.90;;;;;;5098802;28;20487;-89
2022/01/09 03:27:48;;;;;;;2.60;2.50;;;1.40;99.90;;;;;;5098842;28;20050;-89
2022/01/09 03:30:16;;;;;;;2.17;2.08;;;1.40;99.90;;;;;;5098566;28;20051;-89
2022/01/09 03:32:43;;;;;;;2.33;2.22;;;1.40;99.90;;;;;;5098685;28;20483;-88
2022/01/09 03:35:13;;;;;;;2.10;2.00;;;1.50;99.90;;;;;;5098403;28;20052;-88
2022/01/09 03:37:42;;;;;;;2.00;1.90;;;1.50;99.90;;;;;;5099013;28;20047;-88
2022/01/09 03:40:12;;;;;;;1.85;1.75;;;1.50;99.90;;;;;;5098554;28;20044;-89
2022/01/09 03:42:39;;;;;;;2.03;1.48;;;1.50;99.90;;;;;;5098821;28;20050;-86
2022/01/09 03:45:08;;;;;;;1.75;1.65;;;1.60;99.90;;;;;;5098505;28;20054;-88
2022/01/09 03:47:38;;;;;;;1.40;1.40;;;1.60;99.90;;;;;;5098484;28;20075;-87
2022/01/09 03:50:07;;;;;;;2.45;1.70;;;1.60;99.90;;;;;;5098140;28;20073;-88
2022/01/09 03:52:37;;;;;;;1.60;1.50;;;1.60;99.90;;;;;;5116159;28;20058;-86
2022/01/09 03:55:06;;;;;;;2.10;1.63;;;1.60;99.90;;;;;;5098196;28;20048;-87
2022/01/09 03:57:32;;;;;;;1.73;1.38;;;1.60;99.90;;;;;;5098078;28;20554;-88
2022/01/09 03:59:59;;;;;;;1.45;1.40;;;1.60;99.90;;;;;;5098521;28;20039;-89
2022/01/09 04:02:26;;;;;;;1.23;1.23;;;1.60;99.90;;;;;;5098170;28;20047;-88
2022/01/09 04:04:53;;;;;;;1.20;1.20;;;1.70;99.90;;;;;;5097837;28;20798;-85
2022/01/09 04:07:19;;;;;;;1.38;1.30;;;1.70;99.90;;;;;;5098302;28;20478;-90
2022/01/09 04:09:47;;;;;;;0.90;0.90;;;1.70;99.90;;;;;;5115111;28;20051;-88
2022/01/09 04:12:17;;;;;;;1.02;1.00;;;1.70;99.90;;;;;;5115946;28;20049;-87
2022/01/09 04:14:46;;;;;;;0.90;0.90;;;1.70;99.90;;;;;;5098124;28;20050;-87
2022/01/09 04:17:27;;;;;;;1.05;1.05;;;1.60;99.90;;;;;;5115864;28;20043;-87
2022/01/09 04:19:54;;;;;;;0.80;0.80;;;1.70;99.90;;;;;;5098089;28;20052;-87
2022/01/09 04:22:21;;;;;;;0.80;0.80;;;1.70;99.90;;;;;;5097882;28;20052;-87
2022/01/09 04:24:48;;;;;;;1.10;1.10;;;1.70;99.90;;;;;;5098196;28;20138;-85
2022/01/09 04:27:14;;;;;;;0.98;0.98;;;1.60;99.90;;;;;;5097540;28;20039;-87
2022/01/09 04:29:41;;;;;;;0.80;0.80;;;1.60;99.90;;;;;;5097536;28;20051;-86
2022/01/09 04:32:08;;;;;;;1.05;0.90;;;1.60;99.90;;;;;;5115314;28;20054;-86
2022/01/09 04:34:35;;;;;;;0.73;0.73;;;1.60;99.90;;;;;;5115416;28;20135;-87
2022/01/09 04:37:02;;;;;;;0.88;0.88;;;1.60;99.90;;;;;;5097578;28;20130;-86
2022/01/09 04:39:29;;;;;;;0.80;0.80;;;1.60;99.90;;;;;;5097223;28;20088;-87
2022/01/09 04:41:56;;;;;;;0.77;0.77;;;1.60;99.90;;;;;;5114980;28;20055;-89
2022/01/09 04:44:24;;;;;;;0.63;0.63;;;1.60;99.90;;;;;;5096886;28;20047;-89
2022/01/09 04:47:03;;;;;;;0.50;0.50;;;1.60;99.90;;;;;;5097171;28;20051;-86
2022/01/09 04:49:36;;;;;;;0.80;0.80;;;1.60;99.90;;;;;;5097074;28;20087;-86
2022/01/09 04:52:06;;;;;;;1.20;1.20;;;1.60;99.90;;;;;;5096964;28;20058;-85
2022/01/09 04:54:33;;;;;;;0.80;0.80;;;1.60;99.90;;;;;;5096737;28;20043;-85
2022/01/09 04:57:01;;;;;;;0.57;0.57;;;1.60;99.90;;;;;;5114652;28;20055;-85
2022/01/09 04:59:29;;;;;;;0.65;0.65;;;1.60;99.90;;;;;;5114500;28;20047;-85
2022/01/09 05:01:55;;;;;;;0.90;0.55;;;1.60;99.90;;;;;;5096755;28;20147;-85
2022/01/09 05:04:22;;;;;;;1.15;1.00;;;1.60;99.90;;;;;;5096709;28;20044;-86
2022/01/09 05:06:49;;;;;;;0.70;0.70;;;1.60;99.90;;;;;;5114376;28;20398;-85
2022/01/09 05:09:16;;;;;;;0.70;0.70;;;1.60;99.90;;;;;;5095980;28;20054;-85
2022/01/09 05:11:43;;;;;;;0.80;0.80;;;1.60;99.90;;;;;;5096346;28;20055;-85
2022/01/09 05:14:09;;;;;;;0.70;0.70;;;1.60;99.90;;;;;;5095899;28;20070;-85
2022/01/09 05:16:41;;;;;;;0.60;0.60;;;1.50;99.90;;;;;;5114216;28;20054;-85
2022/01/09 05:19:17;;;;;;;0.55;0.55;;;1.60;99.90;;;;;;5095947;28;20094;-85
2022/01/09 05:21:45;;;;;;;0.80;0.80;;;1.60;99.90;;;;;;5096136;28;20063;-84
2022/01/09 05:24:12;;;;;;;0.93;0.60;;;1.60;99.90;;;;;;5095862;28;20049;-84
2022/01/09 05:26:38;;;;;;;0.60;0.60;;;1.60;99.90;;;;;;5114007;28;20071;-84
2022/01/09 05:29:06;;;;;;;0.60;0.50;;;1.60;99.90;;;;;;5113886;28;20551;-85
2022/01/09 05:31:32;;;;;;;0.50;0.50;;;1.60;99.90;;;;;;5114102;28;20139;-85
2022/01/09 05:33:59;;;;;;;0.50;0.50;;;1.60;99.90;;;;;;5095904;28;20048;-85
2022/01/09 05:36:26;;;;;;;0.40;0.40;;;1.60;99.90;;;;;;5095330;28;20048;-84
2022/01/09 05:38:53;;;;;;;0.57;0.57;;;1.60;99.90;;;;;;5095643;28;20069;-86
2022/01/09 05:41:20;;;;;;;0.50;0.50;;;1.60;99.90;;;;;;5095873;28;20054;-86
2022/01/09 05:43:47;;;;;;;0.65;0.65;;;1.70;99.90;;;;;;5095989;28;20047;-84
2022/01/09 05:46:14;;;;;;;0.40;0.40;;;1.70;99.90;;;;;;5113670;28;20158;-85
2022/01/09 05:48:41;;;;;;;0.40;0.40;;;1.70;99.90;;;;;;5095743;28;20046;-84
2022/01/09 05:51:08;;;;;;;1.38;1.30;;;1.70;99.90;;;;;;5095517;28;20052;-86
2022/01/09 05:53:35;;;;;;;0.40;0.40;;;1.70;99.90;;;;;;5095728;28;20388;-85
2022/01/09 05:56:02;;;;;;;0.68;0.50;;;1.70;99.90;;;;;;5113261;28;20491;-85
2022/01/09 05:58:29;;;;;;;0.50;0.50;;;1.70;99.90;;;;;;5095005;28;20487;-84
2022/01/09 06:00:55;;;;;;;0.47;0.47;;;1.70;99.90;;;;;;5095451;28;20476;-85
2022/01/09 06:03:22;;;;;;;0.57;0.57;;;1.70;99.90;;;;;;5095328;28;20061;-84
2022/01/09 06:05:51;;;;;;;0.32;0.32;;;1.70;99.90;;;;;;5095436;28;20097;-84
2022/01/09 06:08:17;;;;;;;0.50;0.50;;;1.70;99.90;;;;;;5095219;28;20061;-86
2022/01/09 06:10:44;;;;;;;0.40;0.30;;;1.70;99.90;;;;;;5094841;28;20046;-85
2022/01/09 06:13:11;;;;;;;0.20;0.20;;;1.70;99.90;;;;;;5095283;28;20048;-85
2022/01/09 06:15:37;;;;;;;0.35;0.35;;;1.80;99.90;;;;;;5095429;28;20080;-85
2022/01/09 06:18:05;;;;;;;0.20;0.20;;;1.80;99.90;;;;;;5095082;28;20054;-84
2022/01/09 06:20:32;;;;;;;0.20;0.20;;;1.70;99.90;;;;;;5095251;28;20082;-85
2022/01/09 06:22:58;;;;;;;0.30;0.30;;;1.70;99.90;;;;;;5094945;28;20066;-84
2022/01/09 06:25:25;;;;;;;0.30;0.30;;;1.70;99.90;;;;;;5113399;28;20388;-85
2022/01/09 06:27:52;;;;;;;0.40;0.40;;;1.70;99.90;;;;;;5095490;28;20047;-85
2022/01/09 06:30:19;;;;;;;0.30;0.30;;;1.70;99.90;;;;;;5095061;28;20043;-84
2022/01/09 06:32:46;;;;;;;0.20;0.20;;;1.70;99.90;;;;;;5115856;28;20047;-85
2022/01/09 06:35:13;;;;;;;2.95;0.40;;;1.70;99.90;;;;;;5099201;28;20040;-85
2022/01/09 06:37:40;;;;;;;0.22;0.22;;;1.70;99.90;;;;;;5099375;28;20134;-85
2022/01/09 06:40:08;;;;;;;0.10;0.10;;;1.70;99.90;;;;;;5099186;28;20122;-85
2022/01/09 06:42:34;;;;;;;0.45;0.25;;;1.70;99.90;;;;;;5098999;28;20054;-85
2022/01/09 06:45:02;;;;;;;0.57;0.30;;;1.60;99.90;;;;;;5098727;28;20506;-84
2022/01/09 06:47:28;;;;;;;0.30;0.30;;;1.60;99.90;;;;;;5098823;28;20442;-84
2022/01/09 06:49:56;;;;;;;0.20;0.20;;;1.50;99.90;;;;;;5098714;28;20043;-84
2022/01/09 06:52:23;;;;;;;0.30;0.30;;;1.50;99.90;;;;;;5098638;28;20049;-84
2022/01/09 06:54:53;;;;;;;0.40;0.40;;;1.50;99.90;;;;;;5099169;28;20406;-84
2022/01/09 06:57:19;;;;;;;1.38;0.40;;;1.40;99.90;;;;;;5116312;28;20046;-84
2022/01/09 06:59:46;;;;;;;0.30;0.30;;;1.40;99.90;;;;;;5116867;28;20052;-84
2022/01/09 07:02:13;;;;;;;0.50;0.50;;;1.50;99.90;;;;;;5098412;28;20043;-84
2022/01/09 07:04:40;;;;;;;2.00;0.60;;;1.30;99.90;;;;;;5098639;28;20059;-84
2022/01/09 07:07:07;;;;;;;4.30;0.68;;;1.40;99.90;;;;;;5098485;28;20097;-84
2022/01/09 07:09:34;;;;;;;1.70;1.60;;;1.40;99.90;;;;;;5098377;28;20044;-84
2022/01/09 07:12:01;;;;;;;1.38;0.70;;;1.40;99.90;;;;;;5116351;28;20055;-83
2022/01/09 07:14:28;;;;;;;1.83;1.17;;;1.40;99.90;;;;;;5098125;28;20124;-84
2022/01/09 07:16:55;;;;;;;2.85;2.65;;;1.50;99.90;;;;;;5116439;28;20051;-85
2022/01/09 07:19:21;;;;;;;2.13;2.03;;;1.50;99.90;;;;;;5116273;28;20424;-84
2022/01/09 07:21:48;;;;;;;5.05;4.65;;;1.50;99.90;;;;;;5116368;28;20050;-85
2022/01/09 07:24:15;;;;;;;8.02;7.32;;;1.50;99.90;;;;;;5098559;28;20484;-85
2022/01/09 07:26:42;;;;;;;14.65;13.07;;;1.50;99.90;;;;;;5116287;28;20048;-84
2022/01/09 07:29:09;;;;;;;8.68;7.85;;;1.50;99.90;;;;;;5098062;28;20040;-84
2022/01/09 07:31:36;;;;;;;3.90;3.30;;;1.60;99.90;;;;;;5116004;28;20039;-84
2022/01/09 07:34:02;;;;;;;1.30;1.20;;;1.50;99.90;;;;;;5098020;28;20092;-84
2022/01/09 07:36:29;;;;;;;0.73;0.73;;;1.50;99.90;;;;;;5116322;28;20040;-85
2022/01/09 07:38:56;;;;;;;1.15;1.15;;;1.50;99.90;;;;;;5098298;28;20047;-84
2022/01/09 07:41:24;;;;;;;2.05;1.40;;;1.50;99.90;;;;;;5098344;28;20074;-85
2022/01/09 07:43:51;;;;;;;1.30;0.85;;;1.50;99.90;;;;;;5116094;28;20050;-85
2022/01/09 07:46:18;;;;;;;1.27;1.27;;;1.50;99.90;;;;;;5116094;28;20047;-84
2022/01/09 07:48:45;;;;;;;1.50;1.40;;;1.50;99.90;;;;;;5098240;28;20127;-85
2022/01/09 07:51:12;;;;;;;1.60;1.50;;;1.50;99.90;;;;;;5116117;28;20057;-85
2022/01/09 07:53:39;;;;;;;3.78;2.75;;;1.50;99.90;;;;;;5116061;28;20043;-84
2022/01/09 07:56:06;;;;;;;1.70;1.60;;;1.60;99.90;;;;;;5115884;28;20047;-85
2022/01/09 07:58:33;;;;;;;3.03;2.75;;;1.60;99.90;;;;;;5097911;28;20142;-85
2022/01/09 08:00:59;;;;;;;6.00;5.00;;;1.70;99.90;;;;;;5098107;28;20506;-85
2022/01/09 08:03:26;;;;;;;3.72;3.42;;;1.70;99.90;;;;;;5097797;28;20104;-85
2022/01/09 08:05:53;;;;;;;4.90;3.95;;;1.70;99.90;;;;;;5115903;28;20093;-85
2022/01/09 08:08:20;;;;;;;10.18;5.80;;;1.80;99.90;;;;;;5115660;28;20047;-84
2022/01/09 08:10:47;;;;;;;11.82;6.40;;;1.80;99.90;;;;;;5115336;28;20091;-84
2022/01/09 08:13:13;;;;;;;8.18;5.70;;;1.90;99.90;;;;;;5097083;28;20075;-85
2022/01/09 08:15:40;;;;;;;5.43;4.15;;;2.10;99.90;;;;;;5097733;28;20044;-85
2022/01/09 08:18:07;;;;;;;5.30;4.38;;;2.30;99.90;;;;;;5097676;28;20108;-84
2022/01/09 08:20:34;;;;;;;7.03;5.00;;;2.40;99.90;;;;;;5115326;28;20131;-84
2022/01/09 08:23:00;;;;;;;6.93;5.38;;;2.50;99.90;;;;;;5115188;28;20046;-85
2022/01/09 08:25:27;;;;;;;4.13;3.75;;;2.60;99.90;;;;;;5097448;28;20054;-85
2022/01/09 08:27:55;;;;;;;6.25;4.40;;;2.70;99.90;;;;;;5097274;28;20039;-85
2022/01/09 08:30:23;;;;;;;2.20;2.10;;;2.70;99.90;;;;;;5115375;28;20047;-85
2022/01/09 08:32:53;;;;;;;0.60;0.60;;;2.70;99.90;;;;;;5095946;28;20130;-85
2022/01/09 08:35:21;;;;;;;0.43;0.43;;;2.70;99.90;;;;;;5097182;28;20043;-85
2022/01/09 08:37:48;;;;;;;0.40;0.40;;;2.80;99.90;;;;;;5097347;28;20146;-85
2022/01/09 08:40:19;;;;;;;0.90;0.35;;;2.90;99.90;;;;;;5115173;28;20043;-85
2022/01/09 08:42:47;;;;;;;0.43;0.43;;;3.10;99.90;;;;;;5115591;28;20139;-85
2022/01/09 08:45:15;;;;;;;0.65;0.65;;;3.20;99.90;;;;;;5097041;28;20428;-85
2022/01/09 08:47:43;;;;;;;1.40;1.30;;;3.30;99.90;;;;;;5115269;28;20055;-85
2022/01/09 08:50:12;;;;;;;2.00;1.80;;;3.20;99.90;;;;;;5097013;28;20040;-85
2022/01/09 08:52:39;;;;;;;2.10;1.90;;;3.20;99.90;;;;;;5114997;28;20047;-85
2022/01/09 08:55:07;;;;;;;4.07;2.90;;;3.20;99.90;;;;;;5096288;28;20052;-85
2022/01/09 08:57:34;;;;;;;3.42;3.13;;;3.20;99.90;;;;;;5114874;28;20150;-85
2022/01/09 09:00:03;;;;;;;3.30;2.83;;;3.10;99.90;;;;;;5114998;28;20469;-85
2022/01/09 09:02:30;;;;;;;4.88;3.50;;;3.20;99.90;;;;;;5096754;28;20044;-86
2022/01/09 09:04:56;;;;;;;2.92;2.72;;;3.20;99.90;;;;;;5114748;28;20079;-86
2022/01/09 09:07:24;;;;;;;18.08;11.32;;;3.20;99.90;;;;;;5096669;28;20053;-86
2022/01/09 09:09:52;;;;;;;28.05;16.65;;;3.20;99.90;;;;;;5096760;28;20094;-86
2022/01/09 09:12:19;;;;;;;31.90;18.30;;;3.20;99.90;;;;;;5096978;28;20074;-86
2022/01/09 09:14:46;;;;;;;11.13;6.38;;;3.20;99.90;;;;;;5114756;28;20057;-87
2022/01/09 09:17:13;;;;;;;13.40;8.95;;;3.20;99.90;;;;;;5096892;28;20047;-87
2022/01/09 09:19:40;;;;;;;9.15;5.25;;;3.30;99.90;;;;;;5096711;28;20075;-85
2022/01/09 09:22:07;;;;;;;10.30;6.05;;;3.30;99.90;;;;;;5096705;28;20130;-86
2022/01/09 09:24:35;;;;;;;9.88;5.60;;;3.40;99.90;;;;;;5114216;28;20050;-86
2022/01/09 09:27:01;;;;;;;4.40;3.13;;;3.50;99.90;;;;;;5114485;28;20051;-86
2022/01/09 09:29:28;;;;;;;14.23;8.20;;;3.40;99.90;;;;;;5114346;28;20043;-86
2022/01/09 09:31:56;;;;;;;8.82;6.00;;;3.40;99.90;;;;;;5096237;28;20051;-86
2022/01/09 09:34:22;;;;;;;6.53;4.63;;;3.40;99.90;;;;;;5096243;28;20061;-86
2022/01/09 09:36:50;;;;;;;6.78;4.95;;;3.40;99.90;;;;;;5096430;28;20415;-86
2022/01/09 09:39:16;;;;;;;3.45;3.15;;;3.40;99.90;;;;;;5114316;28;20047;-86
2022/01/09 09:41:44;;;;;;;7.22;4.38;;;3.40;99.90;;;;;;5096353;28;20491;-86
2022/01/09 09:44:12;;;;;;;1.70;1.60;;;3.40;99.90;;;;;;5096104;28;20048;-85
2022/01/09 09:46:39;;;;;;;7.88;3.03;;;3.40;99.90;;;;;;5114210;28;20108;-86
2022/01/09 09:49:06;;;;;;;4.72;4.32;;;3.40;99.90;;;;;;5096227;28;20492;-86
2022/01/09 09:51:32;;;;;;;5.22;4.40;;;3.30;99.90;;;;;;5114114;28;20057;-86
2022/01/09 09:53:59;;;;;;;3.55;2.60;;;3.30;99.90;;;;;;5096265;28;20392;-86
2022/01/09 09:56:26;;;;;;;2.70;2.40;;;3.20;99.90;;;;;;5113940;28;20050;-86
2022/01/09 09:58:58;;;;;;;7.22;3.92;;;3.20;99.90;;;;;;5113731;28;20064;-86
2022/01/09 10:01:33;;;;;;;4.72;3.70;;;3.20;99.90;;;;;;5096114;28;20056;-86
2022/01/09 10:04:04;;;;;;;6.55;4.45;;;3.10;99.90;;;;;;5095631;28;20109;-86
2022/01/09 10:06:46;;;;;;;2.00;1.80;;;3.20;99.90;;;;;;5095278;28;20100;-85
2022/01/09 10:09:23;;;;;;;2.50;1.50;;;3.20;99.90;;;;;;5113250;28;20051;-86
2022/01/09 10:11:54;;;;;;;1.92;1.83;;;3.30;99.90;;;;;;5095556;28;20055;-85
2022/01/09 10:14:28;;;;;;;2.72;1.38;;;3.30;99.90;;;;;;5095535;28;20047;-85
2022/01/09 10:17:24;;;;;;;3.08;1.55;;;3.40;99.90;;;;;;5113711;28;20077;-85
2022/01/09 10:20:09;;;;;;;1.83;1.60;;;3.60;99.90;;;;;;5095196;28;20059;-85
2022/01/09 10:22:44;;;;;;;2.50;2.13;;;3.50;99.90;;;;;;5095495;28;20046;-85
2022/01/09 10:25:25;;;;;;;2.35;2.15;;;3.50;99.90;;;;;;5095194;28;20047;-85
2022/01/09 10:28:12;;;;;;;1.63;1.52;;;3.40;99.90;;;;;;5113399;28;20134;-84
2022/01/09 10:30:48;;;;;;;0.95;0.50;;;3.30;99.90;;;;;;5095447;28;20047;-85
2022/01/09 10:33:16;;;;;;;1.42;1.33;;;3.30;99.90;;;;;;5113268;28;20043;-85
2022/01/09 10:35:46;;;;;;;0.43;0.43;;;3.20;99.90;;;;;;5113486;28;20047;-85
2022/01/09 10:38:45;;;;;;;1.20;1.20;;;3.10;99.90;;;;;;5095531;28;20044;-85
2022/01/09 10:41:12;;;;;;;0.73;0.73;;;3.20;99.90;;;;;;5092982;28;20418;-85
2022/01/09 10:43:41;;;;;;;0.80;0.60;;;3.20;99.90;;;;;;5095073;28;20406;-85
2022/01/09 10:46:09;;;;;;;0.68;0.60;;;3.20;99.90;;;;;;5112797;28;20052;-85
2022/01/09 10:48:42;;;;;;;0.68;0.68;;;3.30;99.90;;;;;;5112751;28;20043;-84
2022/01/09 10:51:11;;;;;;;0.40;0.30;;;3.30;99.90;;;;;;5094780;28;20047;-84
2022/01/09 10:53:45;;;;;;;1.17;0.20;;;3.30;99.90;;;;;;5094267;28;20054;-84
2022/01/09 10:56:20;;;;;;;0.50;0.50;;;3.30;99.90;;;;;;5095480;28;20546;-84
2022/01/09 10:58:49;;;;;;;0.50;0.32;;;3.30;99.90;;;;;;5094638;28;20051;-85
2022/01/09 11:01:23;;;;;;;0.50;0.50;;;3.20;99.90;;;;;;5112973;28;20040;-84
2022/01/09 11:03:59;;;;;;;0.30;0.30;;;3.30;99.90;;;;;;5112900;28;20056;-84
2022/01/09 11:06:32;;;;;;;0.20;0.20;;;3.20;99.90;;;;;;5095045;28;20075;-84
2022/01/09 11:09:02;;;;;;;0.20;0.20;;;3.20;99.90;;;;;;5094495;28;20054;-84
2022/01/09 11:11:43;;;;;;;0.20;0.17;;;3.20;99.90;;;;;;5094754;28;20466;-85
2022/01/09 11:14:14;;;;;;;0.65;0.50;;;3.10;99.90;;;;;;5094907;28;20185;-84
2022/01/09 11:16:51;;;;;;;0.22;0.22;;;3.10;99.90;;;;;;5094689;28;20108;-84
2022/01/09 11:19:23;;;;;;;1.67;0.40;;;3.10;99.90;;;;;;5097992;28;20062;-84
2022/01/09 11:21:54;;;;;;;0.50;0.50;;;3.10;99.90;;;;;;5116459;28;20502;-84
2022/01/09 11:25:09;;;;;;;0.22;0.22;;;3.10;99.90;;;;;;5098681;28;20461;-84
2022/01/09 11:27:50;;;;;;;0.40;0.40;;;3.10;99.90;;;;;;5098603;28;20415;-85
2022/01/09 11:30:33;;;;;;;0.30;0.30;;;3.00;99.90;;;;;;5098355;28;20054;-84
2022/01/09 11:33:15;;;;;;;2.83;1.97;;;3.00;99.90;;;;;;5116245;28;20052;-84
2022/01/09 11:36:04;;;;;;;0.40;0.40;;;3.00;99.90;;;;;;5098498;28;20066;-84
2022/01/09 11:38:50;;;;;;;0.30;0.30;;;3.00;99.90;;;;;;5116390;28;20122;-85
2022/01/09 11:41:24;;;;;;;0.68;0.68;;;3.00;99.90;;;;;;5116101;28;20131;-84
2022/01/09 11:43:59;;;;;;;3.70;2.33;;;3.00;99.90;;;;;;5098177;28;20050;-85
2022/01/09 11:46:28;;;;;;;0.40;0.40;;;3.00;99.90;;;;;;5116116;28;20113;-84
2022/01/09 11:48:55;;;;;;;0.80;0.80;;;3.10;99.90;;;;;;5098054;28;20047;-84
2022/01/09 11:51:26;;;;;;;1.05;0.47;;;3.10;99.90;;;;;;5098001;28;20058;-84
2022/01/09 11:54:15;;;;;;;2.63;1.42;;;3.20;99.90;;;;;;5098042;28;20081;-85
2022/01/09 11:56:50;;;;;;;0.80;0.40;;;3.20;99.90;;;;;;5097923;28;20056;-85
2022/01/09 11:59:45;;;;;;;;;;;3.20;99.90;;;;;;5101052;28;20466;-84
2022/01/09 12:02:12;;;;;;;0.20;0.20;;;3.20;99.90;;;;;;5097923;28;19923;-84
2022/01/09 12:04:45;;;;;;;1.88;0.82;;;3.20;99.90;;;;;;5097712;28;20050;-84
2022/01/09 12:07:12;;;;;;;3.40;0.50;;;3.20;99.90;;;;;;5097739;28;20630;-85
2022/01/09 12:09:47;;;;;;;0.35;0.35;;;3.20;99.90;;;;;;5097461;28;20056;-85
2022/01/09 12:12:20;;;;;;;0.45;0.45;;;3.20;99.90;;;;;;5115509;28;20043;-84
2022/01/09 12:15:09;;;;;;;1.48;0.80;;;3.20;99.90;;;;;;5098499;28;20050;-85
2022/01/09 12:17:42;;;;;;;0.52;0.52;;;3.20;99.90;;;;;;5115714;28;20043;-84
2022/01/09 12:20:15;;;;;;;1.20;0.65;;;3.30;99.90;;;;;;5102354;28;20052;-84
2022/01/09 12:22:49;;;;;;;0.43;0.43;;;3.30;99.90;;;;;;5121140;28;20054;-84
2022/01/09 12:25:50;;;;;;;0.63;0.63;;;3.20;99.90;;;;;;5138601;27;20524;-79
2022/01/09 12:28:33;;;;;;;0.63;0.40;;;3.30;99.90;;;;;;5113504;28;20054;-80
2022/01/09 12:31:20;;;;;;;0.70;0.70;;;3.30;99.90;;;;;;5107822;28;20121;-79
2022/01/09 12:33:49;;;;;;;0.50;0.50;;;3.40;99.90;;;;;;5093548;28;20056;-79
2022/01/09 12:36:20;;;;;;;0.68;0.68;;;3.40;99.90;;;;;;5094057;28;20127;-80
2022/01/09 12:38:56;;;;;;;0.73;0.50;;;3.40;99.90;;;;;;5095110;28;20052;-79
2022/01/09 12:41:26;;;;;;;0.98;0.52;;;3.30;99.90;;;;;;5093632;28;20088;-80
2022/01/09 12:44:01;;;;;;;0.22;0.22;;;3.30;99.90;;;;;;5094724;28;20075;-80
2022/01/09 12:46:30;;;;;;;0.60;0.30;;;3.30;99.90;;;;;;5094354;28;20135;-80
2022/01/09 12:49:08;;;;;;;1.52;0.50;;;3.20;99.90;;;;;;5094283;28;20520;-79
2022/01/09 12:51:36;;;;;;;1.85;0.50;;;3.20;99.90;;;;;;5092657;28;20048;-79
2022/01/09 12:54:06;;;;;;;1.27;1.15;;;3.20;99.90;;;;;;5093809;28;20075;-79
2022/01/09 12:56:35;;;;;;;1.23;1.05;;;3.20;99.90;;;;;;5092498;28;20132;-79
2022/01/09 12:59:07;;;;;;;0.40;0.40;;;3.20;99.90;;;;;;5092712;28;20128;-80
2022/01/09 13:01:41;;;;;;;0.30;0.30;;;3.20;99.90;;;;;;5093369;28;20060;-80
2022/01/09 13:04:17;;;;;;;0.57;0.20;;;3.20;99.90;;;;;;5093302;28;20084;-80
2022/01/09 13:06:47;;;;;;;0.20;0.20;;;3.20;99.90;;;;;;5093333;28;20055;-79
2022/01/09 13:09:21;;;;;;;0.20;0.20;;;3.10;99.90;;;;;;5093373;28;20098;-80
2022/01/09 13:11:52;;;;;;;;;;;3.20;99.90;;;;;;5092696;28;20076;-79